createdAt,value
2023-02-24T00:02:05.263Z,47.90
2023-02-24T00:04:35.556Z,50.77
2023-02-24T00:07:03.106Z,56.13
2023-02-24T00:09:31.051Z,49.67
2023-02-24T00:11:59.696Z,55.80
2023-02-24T00:14:28.170Z,54.70
2023-02-24T00:16:55.851Z,50.73
2023-02-24T00:19:24.489Z,50.00
2023-02-24T00:21:52.212Z,52.30
2023-02-24T00:24:19.393Z,49.37
2023-02-24T00:26:48.348Z,52.13
2023-02-24T00:29:15.433Z,54.43
2023-02-24T00:31:43.301Z,49.63
2023-02-24T00:34:15.135Z,54.53
2023-02-24T00:36:42.280Z,52.47
2023-02-24T00:39:10.124Z,57.70
2023-02-24T00:41:38.394Z,54.20
2023-02-24T00:44:07.349Z,58.70
2023-02-24T00:46:45.377Z,54.93
2023-02-24T00:49:17.070Z,55.83
2023-02-24T00:51:46.798Z,52.03
2023-02-24T00:54:15.079Z,54.27
2023-02-24T00:56:46.075Z,55.93
2023-02-24T00:59:14.388Z,56.43
2023-02-24T01:01:41.975Z,57.13
2023-02-24T01:04:12.768Z,56.90
2023-02-24T01:06:41.708Z,51.50
2023-02-24T01:09:09.583Z,56.57
2023-02-24T01:11:57.203Z,58.47
2023-02-24T01:14:26.773Z,52.47
2023-02-24T01:16:54.624Z,54.60
2023-02-24T01:19:23.200Z,54.30
2023-02-24T01:21:55.241Z,51.93
2023-02-24T01:24:23.801Z,52.13
2023-02-24T01:26:51.045Z,54.33
2023-02-24T01:29:18.274Z,54.30
2023-02-24T01:31:48.674Z,56.43
2023-02-24T01:34:16.993Z,56.87
2023-02-24T01:36:44.471Z,53.27
2023-02-24T01:39:13.485Z,63.27
2023-02-24T01:41:41.581Z,61.50
2023-02-24T01:44:29.573Z,59.43
2023-02-24T01:46:56.946Z,55.60
2023-02-24T01:49:24.041Z,62.67
2023-02-24T01:51:54.423Z,59.37
2023-02-24T01:54:23.330Z,64.83
2023-02-24T01:56:51.797Z,68.70
2023-02-24T01:59:20.444Z,58.67
2023-02-24T02:01:48.606Z,67.90
2023-02-24T02:04:18.683Z,61.50
2023-02-24T02:06:46.456Z,65.20
2023-02-24T02:09:15.379Z,62.07
2023-02-24T02:11:49.078Z,66.60
2023-02-24T02:14:17.314Z,61.70
2023-02-24T02:16:44.482Z,66.03
2023-02-24T02:19:24.455Z,69.27
2023-02-24T02:22:06.943Z,65.77
2023-02-24T02:24:34.060Z,72.87
2023-02-24T02:27:10.199Z,65.57
2023-02-24T02:29:37.315Z,66.00
2023-02-24T02:32:05.695Z,65.03
2023-02-24T02:34:51.249Z,66.30
2023-02-24T02:37:33.125Z,66.80
2023-02-24T02:40:08.944Z,67.43
2023-02-24T02:42:42.423Z,67.73
2023-02-24T02:45:13.344Z,66.63
2023-02-24T02:47:54.533Z,76.03
2023-02-24T02:50:24.797Z,68.63
2023-02-24T02:52:54.595Z,70.87
2023-02-24T02:55:30.629Z,69.87
2023-02-24T02:57:59.062Z,65.80
2023-02-24T03:00:35.280Z,67.40
2023-02-24T03:03:08.360Z,67.23
2023-02-24T03:05:38.738Z,70.13
2023-02-24T03:08:11.395Z,65.27
2023-02-24T03:10:40.960Z,62.10
2023-02-24T03:13:09.716Z,67.93
2023-02-24T03:15:42.075Z,67.80
2023-02-24T03:18:12.765Z,67.17
2023-02-24T03:20:46.799Z,60.17
2023-02-24T03:23:19.709Z,65.33
2023-02-24T03:25:53.313Z,59.53
2023-02-24T03:28:29.104Z,60.20
2023-02-24T03:31:03.708Z,63.03
2023-02-24T03:33:37.195Z,62.60
2023-02-24T03:36:05.573Z,59.70
2023-02-24T03:38:33.915Z,64.90
2023-02-24T03:41:01.081Z,62.93
2023-02-24T03:43:32.533Z,64.20
2023-02-24T03:46:01.326Z,65.00
2023-02-24T03:48:29.428Z,63.80
2023-02-24T03:50:59.324Z,59.17
2023-02-24T03:53:32.669Z,60.93
2023-02-24T03:56:00.531Z,64.37
2023-02-24T03:58:36.882Z,61.77
2023-02-24T04:01:15.003Z,64.33
2023-02-24T04:03:50.272Z,63.47
2023-02-24T04:06:26.488Z,62.40
2023-02-24T04:09:12.120Z,59.73
2023-02-24T04:11:45.976Z,61.37
2023-02-24T04:14:18.648Z,71.00
2023-02-24T04:16:57.056Z,64.97
2023-02-24T04:19:27.616Z,66.80
2023-02-24T04:21:55.371Z,65.77
2023-02-24T04:24:24.584Z,63.23
2023-02-24T04:26:52.645Z,66.10
2023-02-24T04:29:24.273Z,67.67
2023-02-24T04:31:54.091Z,67.37
2023-02-24T04:34:21.484Z,66.10
2023-02-24T04:36:52.088Z,64.63
2023-02-24T04:39:20.512Z,67.60
2023-02-24T04:41:50.902Z,64.67
2023-02-24T04:44:18.852Z,64.60
2023-02-24T04:46:46.722Z,66.93
2023-02-24T04:49:14.368Z,75.97
2023-02-24T04:51:42.430Z,66.67
2023-02-24T04:54:10.151Z,68.93
2023-02-24T04:56:37.527Z,68.57
2023-02-24T04:59:04.626Z,65.33
2023-02-24T05:01:31.736Z,63.70
2023-02-24T05:04:00.229Z,67.03
2023-02-24T05:06:27.448Z,64.43
2023-02-24T05:08:54.615Z,69.73
2023-02-24T05:11:21.971Z,67.93
2023-02-24T05:13:49.322Z,64.23
2023-02-24T05:16:17.759Z,64.83
2023-02-24T05:18:44.939Z,63.20
2023-02-24T05:21:51.814Z,61.87
2023-02-24T05:24:19.067Z,63.00
2023-02-24T05:26:46.723Z,69.40
2023-02-24T05:29:14.582Z,64.30
2023-02-24T05:31:41.816Z,61.37
2023-02-24T05:34:09.048Z,61.77
2023-02-24T05:36:39.533Z,64.00
2023-02-24T05:39:07.838Z,63.47
2023-02-24T05:41:36.236Z,69.73
2023-02-24T05:44:10.871Z,61.30
2023-02-24T05:46:39.697Z,58.30
2023-02-24T05:49:09.144Z,63.63
2023-02-24T05:51:37.243Z,65.17
2023-02-24T05:54:05.265Z,63.50
2023-02-24T05:56:33.999Z,64.60
2023-02-24T05:59:02.192Z,60.90
2023-02-24T06:01:30.839Z,64.60
2023-02-24T06:04:05.687Z,63.17
2023-02-24T06:06:39.893Z,61.73
2023-02-24T06:09:12.605Z,66.40
2023-02-24T06:11:40.886Z,62.07
2023-02-24T06:14:08.516Z,62.37
2023-02-24T06:16:36.719Z,67.17
2023-02-24T06:19:05.168Z,65.10
2023-02-24T06:21:32.575Z,61.27
2023-02-24T06:24:00.813Z,61.20
2023-02-24T06:26:33.614Z,58.87
2023-02-24T06:29:00.780Z,62.80
2023-02-24T06:31:28.381Z,67.90
2023-02-24T06:33:56.145Z,63.97
2023-02-24T06:36:23.627Z,62.87
2023-02-24T06:38:52.517Z,59.57
2023-02-24T06:41:20.036Z,64.47
2023-02-24T06:43:48.269Z,62.43
2023-02-24T06:46:16.691Z,68.47
2023-02-24T06:48:43.924Z,63.73
2023-02-24T06:51:15.740Z,61.53
2023-02-24T06:53:46.117Z,56.87
2023-02-24T06:56:20.443Z,56.70
2023-02-24T06:58:50.598Z,60.83
2023-02-24T07:01:19.238Z,57.13
2023-02-24T07:04:02.777Z,62.17
2023-02-24T07:06:30.868Z,59.67
2023-02-24T07:08:59.214Z,60.63
2023-02-24T07:11:26.685Z,61.83
2023-02-24T07:13:54.553Z,57.53
2023-02-24T07:16:25.297Z,60.93
2023-02-24T07:18:56.758Z,55.30
2023-02-24T07:21:25.671Z,55.17
2023-02-24T07:23:59.635Z,60.43
2023-02-24T07:26:30.321Z,55.00
2023-02-24T07:28:58.037Z,54.87
2023-02-24T07:31:26.103Z,58.17
2023-02-24T07:33:57.303Z,55.37
2023-02-24T07:36:29.984Z,52.73
2023-02-24T07:38:58.286Z,52.90
2023-02-24T07:41:28.450Z,59.03
2023-02-24T07:43:58.883Z,52.47
2023-02-24T07:46:28.118Z,55.40
2023-02-24T07:48:56.253Z,55.30
2023-02-24T07:51:25.165Z,56.63
2023-02-24T07:53:53.752Z,56.50
2023-02-24T07:56:26.911Z,53.57
2023-02-24T07:59:07.859Z,52.50
2023-02-24T08:01:49.514Z,52.30
2023-02-24T08:04:23.366Z,55.03
2023-02-24T08:06:56.058Z,51.53
2023-02-24T08:09:45.945Z,49.93
2023-02-24T08:12:17.949Z,49.33
2023-02-24T08:14:51.922Z,50.13
2023-02-24T08:17:20.635Z,50.97
2023-02-24T08:19:48.944Z,46.90
2023-02-24T08:22:25.403Z,46.03
2023-02-24T08:24:53.855Z,49.50
2023-02-24T08:27:22.261Z,48.10
2023-02-24T08:29:59.830Z,46.03
2023-02-24T08:32:33.824Z,45.40
2023-02-24T08:35:03.617Z,45.63
2023-02-24T08:37:39.681Z,46.50
2023-02-24T08:40:34.159Z,47.03
2023-02-24T08:43:16.878Z,49.40
2023-02-24T08:45:46.814Z,49.83
2023-02-24T08:48:26.952Z,50.37
2023-02-24T08:50:57.772Z,51.27
2023-02-24T08:53:31.417Z,55.43
2023-02-24T08:55:59.609Z,45.53
2023-02-24T08:58:31.191Z,47.17
2023-02-24T09:00:59.502Z,43.23
2023-02-24T09:03:28.391Z,46.80
2023-02-24T09:06:05.928Z,44.30
2023-02-24T09:08:33.987Z,44.93
2023-02-24T09:11:07.710Z,46.43
2023-02-24T09:13:43.051Z,49.17
2023-02-24T09:16:16.541Z,46.63
2023-02-24T09:18:44.600Z,44.60
2023-02-24T09:21:53.431Z,50.23
2023-02-24T09:24:29.665Z,40.27
2023-02-24T09:27:00.194Z,43.17
2023-02-24T09:29:33.897Z,51.63
2023-02-24T09:32:05.443Z,40.77
2023-02-24T09:34:36.538Z,43.00
2023-02-24T09:37:04.998Z,40.20
2023-02-24T09:39:54.405Z,40.10
2023-02-24T09:42:22.312Z,38.27
2023-02-24T09:44:55.776Z,41.53
2023-02-24T09:47:39.979Z,40.43
2023-02-24T09:50:07.563Z,40.77
2023-02-24T09:52:40.923Z,38.80
2023-02-24T09:55:26.996Z,37.73
2023-02-24T09:58:18.370Z,37.23
2023-02-24T10:01:21.289Z,37.27
2023-02-24T10:03:51.950Z,39.97
2023-02-24T10:06:21.801Z,38.27
2023-02-24T10:08:51.306Z,37.70
2023-02-24T10:11:32.735Z,36.27
2023-02-24T10:14:05.299Z,38.17
2023-02-24T10:16:41.606Z,36.80
2023-02-24T10:19:26.833Z,36.17
2023-02-24T10:22:03.126Z,35.17
2023-02-24T10:24:41.198Z,34.40
2023-02-24T10:27:23.926Z,36.40
2023-02-24T10:30:16.096Z,36.43
2023-02-24T10:33:01.156Z,33.13
2023-02-24T10:35:33.979Z,37.27
2023-02-24T10:38:08.678Z,38.83
2023-02-24T10:40:45.067Z,37.90
2023-02-24T10:43:18.499Z,36.93
2023-02-24T10:45:46.525Z,41.43
2023-02-24T10:48:40.325Z,40.40
2023-02-24T10:51:31.876Z,39.77
2023-02-24T10:54:42.487Z,33.87
2023-02-24T10:57:38.311Z,34.77
2023-02-24T11:00:18.741Z,36.77
2023-02-24T11:03:07.031Z,37.83
2023-02-24T11:06:05.032Z,40.87
2023-02-24T11:08:36.977Z,34.23
2023-02-24T11:11:19.866Z,36.67
2023-02-24T11:14:09.580Z,35.83
2023-02-24T11:17:07.099Z,34.00
2023-02-24T11:19:40.782Z,33.17
2023-02-24T11:22:08.814Z,31.33
2023-02-24T11:24:37.624Z,30.70
2023-02-24T11:27:05.361Z,32.63
2023-02-24T11:29:32.463Z,35.47
2023-02-24T11:31:59.675Z,31.50
2023-02-24T11:34:39.189Z,34.50
2023-02-24T11:37:21.307Z,32.27
2023-02-24T11:39:53.133Z,37.10
2023-02-24T11:42:23.994Z,29.90
2023-02-24T11:44:54.029Z,29.77
2023-02-24T11:47:23.445Z,32.90
2023-02-24T11:49:50.639Z,29.97
2023-02-24T11:52:20.666Z,33.30
2023-02-24T11:54:53.224Z,27.77
2023-02-24T11:57:24.618Z,29.57
2023-02-24T12:00:13.413Z,29.23
2023-02-24T12:02:57.918Z,28.00
2023-02-24T12:05:26.720Z,26.47
2023-02-24T12:08:00.314Z,33.30
2023-02-24T12:10:36.375Z,30.27
2023-02-24T12:13:06.682Z,31.00
2023-02-24T12:15:46.676Z,30.83
2023-02-24T12:18:25.611Z,26.37
2023-02-24T12:21:01.685Z,31.53
2023-02-24T12:23:32.984Z,28.27
2023-02-24T12:26:06.782Z,27.67
2023-02-24T12:28:56.882Z,28.23
2023-02-24T12:31:29.312Z,24.60
2023-02-24T12:33:56.501Z,26.67
2023-02-24T12:36:45.246Z,29.77
2023-02-24T12:39:12.344Z,34.30
2023-02-24T12:41:45.834Z,29.83
2023-02-24T12:44:35.438Z,27.03
2023-02-24T12:47:25.802Z,26.53
2023-02-24T12:49:55.693Z,28.03
2023-02-24T12:52:37.944Z,28.27
2023-02-24T12:55:06.104Z,28.00
2023-02-24T12:57:56.377Z,25.00
2023-02-24T13:00:38.111Z,26.40
2023-02-24T13:03:14.267Z,26.73
2023-02-24T13:05:52.257Z,24.80
2023-02-24T13:08:19.405Z,23.77
2023-02-24T13:10:50.141Z,25.47
2023-02-24T13:13:29.765Z,25.67
2023-02-24T13:15:58.285Z,22.90
2023-02-24T13:18:30.091Z,24.40
2023-02-24T13:21:15.536Z,30.67
2023-02-24T13:23:43.453Z,23.27
2023-02-24T13:26:10.668Z,23.83
2023-02-24T13:28:38.590Z,24.10
2023-02-24T13:31:10.539Z,24.07
2023-02-24T13:33:41.665Z,24.67
2023-02-24T13:36:12.069Z,27.33
2023-02-24T13:38:41.836Z,22.43
2023-02-24T13:41:09.941Z,25.07
2023-02-24T13:43:37.087Z,25.10
2023-02-24T13:46:05.303Z,25.50
2023-02-24T13:48:32.455Z,23.83
2023-02-24T13:51:08.558Z,24.60
2023-02-24T13:53:52.633Z,24.30
2023-02-24T13:56:22.481Z,25.17
2023-02-24T13:59:01.733Z,27.90
2023-02-24T14:01:30.303Z,26.90
2023-02-24T14:04:18.485Z,28.07
2023-02-24T14:06:53.813Z,25.57
2023-02-24T14:09:25.435Z,25.23
2023-02-24T14:11:55.185Z,23.67
2023-02-24T14:14:22.605Z,22.37
2023-02-24T14:16:51.579Z,25.93
2023-02-24T14:19:19.482Z,24.10
2023-02-24T14:21:49.563Z,23.17
2023-02-24T14:24:17.979Z,21.67
2023-02-24T14:26:46.949Z,27.23
2023-02-24T14:29:17.450Z,24.47
2023-02-24T14:31:48.453Z,27.10
2023-02-24T14:34:18.763Z,23.27
2023-02-24T14:36:46.459Z,22.37
2023-02-24T14:39:16.679Z,26.00
2023-02-24T14:41:44.366Z,25.17
2023-02-24T14:44:30.315Z,27.20
2023-02-24T14:46:58.863Z,26.57
2023-02-24T14:49:30.188Z,24.97
2023-02-24T14:52:00.634Z,25.63
2023-02-24T14:54:44.452Z,26.67
2023-02-24T14:57:18.297Z,23.63
2023-02-24T14:59:47.651Z,29.13
2023-02-24T15:02:20.915Z,26.73
2023-02-24T15:04:48.518Z,21.43
2023-02-24T15:07:19.769Z,23.83
2023-02-24T15:09:48.328Z,26.07
2023-02-24T15:12:27.648Z,24.30
2023-02-24T15:14:57.044Z,26.90
2023-02-24T15:17:24.478Z,24.73
2023-02-24T15:19:54.959Z,23.43
2023-02-24T15:22:23.924Z,25.83
2023-02-24T15:24:51.908Z,22.50
2023-02-24T15:27:21.135Z,25.63
2023-02-24T15:30:03.587Z,26.50
2023-02-24T15:32:32.309Z,25.23
2023-02-24T15:35:00.436Z,24.67
2023-02-24T15:37:28.615Z,26.80
2023-02-24T15:40:16.088Z,25.77
2023-02-24T15:42:50.284Z,27.47
2023-02-24T15:45:23.455Z,25.50
2023-02-24T15:47:54.531Z,27.00
2023-02-24T15:50:22.260Z,23.47
2023-02-24T15:52:49.877Z,27.60
2023-02-24T15:55:18.656Z,24.43
2023-02-24T15:57:46.197Z,24.13
2023-02-24T16:00:14.996Z,23.93
2023-02-24T16:02:42.511Z,25.47
2023-02-24T16:05:16.430Z,27.30
2023-02-24T16:07:44.687Z,24.03
2023-02-24T16:10:38.017Z,23.43
2023-02-24T16:13:05.136Z,24.30
2023-02-24T16:15:35.583Z,23.83
2023-02-24T16:18:02.875Z,21.63
2023-02-24T16:20:31.840Z,20.73
2023-02-24T16:22:59.639Z,21.63
2023-02-24T16:25:28.013Z,21.20
2023-02-24T16:27:58.387Z,22.60
2023-02-24T16:30:26.976Z,23.10
2023-02-24T16:32:54.313Z,19.17
2023-02-24T16:35:21.516Z,20.63
2023-02-24T16:37:48.655Z,21.67
2023-02-24T16:40:41.806Z,24.73
2023-02-24T16:43:09.248Z,18.97
2023-02-24T16:45:37.828Z,22.07
2023-02-24T16:48:06.226Z,23.20
2023-02-24T16:50:34.580Z,19.13
2023-02-24T16:53:01.760Z,19.37
2023-02-24T16:55:28.891Z,22.13
2023-02-24T16:57:55.961Z,18.60
2023-02-24T17:00:24.358Z,21.60
2023-02-24T17:02:52.338Z,19.67
2023-02-24T17:05:21.169Z,21.50
2023-02-24T17:07:49.091Z,23.17
2023-02-24T17:10:16.955Z,21.87
2023-02-24T17:12:44.130Z,21.00
2023-02-24T17:15:14.540Z,21.97
2023-02-24T17:17:41.659Z,22.60
2023-02-24T17:20:09.008Z,23.30
2023-02-24T17:22:37.149Z,42.90
2023-02-24T17:25:04.521Z,24.73
2023-02-24T17:27:31.659Z,21.03
2023-02-24T17:29:58.769Z,31.27
2023-02-24T17:32:26.043Z,22.27
2023-02-24T17:34:53.326Z,22.17
2023-02-24T17:37:20.894Z,23.27
2023-02-24T17:39:47.976Z,24.13
2023-02-24T17:42:15.352Z,21.67
2023-02-24T17:44:42.773Z,24.53
2023-02-24T17:47:09.919Z,22.17
2023-02-24T17:49:37.057Z,21.33
2023-02-24T17:52:06.263Z,23.13
2023-02-24T17:54:33.539Z,25.57
2023-02-24T17:57:00.609Z,23.37
2023-02-24T17:59:27.722Z,24.40
2023-02-24T18:01:54.903Z,28.27
2023-02-24T18:04:22.046Z,26.00
2023-02-24T18:06:49.162Z,27.67
2023-02-24T18:09:16.744Z,25.27
2023-02-24T18:11:45.819Z,25.70
2023-02-24T18:14:13.328Z,25.40
2023-02-24T18:16:40.658Z,25.50
2023-02-24T18:19:07.808Z,23.13
2023-02-24T18:21:34.992Z,22.80
2023-02-24T18:24:02.624Z,21.83
2023-02-24T18:26:29.979Z,22.43
2023-02-24T18:28:58.700Z,22.57
2023-02-24T18:31:26.963Z,21.43
2023-02-24T18:33:54.304Z,25.13
2023-02-24T18:36:21.821Z,19.10
2023-02-24T18:38:49.204Z,20.67
2023-02-24T18:41:18.384Z,21.00
2023-02-24T18:43:49.224Z,18.23
2023-02-24T18:46:16.650Z,17.33
2023-02-24T18:48:47.021Z,15.83
2023-02-24T18:51:15.091Z,12.73
2023-02-24T18:53:42.192Z,15.70
2023-02-24T18:56:10.847Z,14.93
2023-02-24T18:58:39.355Z,15.03
2023-02-24T19:01:13.151Z,14.97
2023-02-24T19:03:40.679Z,13.13
2023-02-24T19:06:08.241Z,10.80
2023-02-24T19:08:35.484Z,12.90
2023-02-24T19:11:21.369Z,11.50
2023-02-24T19:13:48.532Z,13.27
2023-02-24T19:16:16.202Z,14.63
2023-02-24T19:18:43.740Z,11.20
2023-02-24T19:21:11.559Z,12.80
2023-02-24T19:23:38.752Z,12.57
2023-02-24T19:26:07.561Z,10.53
2023-02-24T19:28:34.710Z,13.17
2023-02-24T19:31:01.841Z,12.07
2023-02-24T19:33:28.966Z,14.20
2023-02-24T19:35:59.612Z,14.63
2023-02-24T19:38:26.929Z,14.93
2023-02-24T19:40:54.028Z,10.90
2023-02-24T19:43:21.163Z,13.33
2023-02-24T19:45:48.396Z,13.87
2023-02-24T19:48:15.575Z,13.93
2023-02-24T19:50:42.717Z,12.87
2023-02-24T19:53:10.134Z,12.20
2023-02-24T19:55:37.242Z,10.87
2023-02-24T19:58:04.676Z,11.10
2023-02-24T20:00:31.779Z,10.23
2023-02-24T20:02:58.938Z,11.80
2023-02-24T20:05:26.089Z,12.83
2023-02-24T20:07:53.186Z,12.47
2023-02-24T20:10:20.318Z,14.57
2023-02-24T20:12:47.508Z,12.40
2023-02-24T20:15:15.445Z,12.87
2023-02-24T20:17:42.588Z,10.57
2023-02-24T20:20:09.992Z,12.77
2023-02-24T20:22:37.086Z,10.87
2023-02-24T20:25:04.264Z,12.23
2023-02-24T20:27:32.636Z,13.30
2023-02-24T20:29:59.824Z,12.07
2023-02-24T20:32:27.177Z,12.90
2023-02-24T20:34:54.937Z,11.10
2023-02-24T20:37:22.186Z,11.60
2023-02-24T20:39:49.280Z,9.17
2023-02-24T20:42:16.362Z,11.60
2023-02-24T20:44:43.494Z,10.50
2023-02-24T20:47:10.704Z,12.80
2023-02-24T20:49:39.265Z,11.03
2023-02-24T20:52:06.528Z,14.37
2023-02-24T20:54:33.728Z,12.50
2023-02-24T20:57:00.839Z,13.03
2023-02-24T20:59:27.975Z,12.70
2023-02-24T21:01:55.082Z,13.83
2023-02-24T21:04:22.654Z,15.97
2023-02-24T21:06:51.457Z,14.03
2023-02-24T21:09:18.610Z,13.67
2023-02-24T21:11:45.786Z,13.87
2023-02-24T21:14:16.607Z,13.37
2023-02-24T21:16:45.707Z,16.47
2023-02-24T21:19:12.852Z,15.23
2023-02-24T21:21:40.041Z,14.97
2023-02-24T21:24:07.419Z,14.90
2023-02-24T21:26:34.530Z,14.93
2023-02-24T21:29:01.626Z,16.53
2023-02-24T21:31:28.851Z,15.70
2023-02-24T21:33:56.327Z,17.97
2023-02-24T21:36:25.779Z,17.83
2023-02-24T21:38:53.535Z,21.17
2023-02-24T21:41:20.767Z,20.27
2023-02-24T21:43:48.163Z,23.33
2023-02-24T21:46:15.973Z,19.63
2023-02-24T21:48:43.170Z,22.80
2023-02-24T21:51:12.089Z,23.37
2023-02-24T21:53:40.960Z,22.47
2023-02-24T21:56:11.255Z,26.47
2023-02-24T21:58:39.790Z,21.93
2023-02-24T22:01:14.082Z,26.03
2023-02-24T22:03:41.305Z,26.97
2023-02-24T22:06:10.498Z,26.73
2023-02-24T22:08:43.012Z,26.07
2023-02-24T22:11:11.152Z,30.63
2023-02-24T22:13:38.718Z,25.77
2023-02-24T22:16:07.126Z,27.67
2023-02-24T22:18:34.434Z,27.17
2023-02-24T22:21:05.351Z,29.43
2023-02-24T22:23:32.481Z,31.13
2023-02-24T22:26:02.848Z,25.67
2023-02-24T22:28:29.956Z,26.77
2023-02-24T22:30:57.807Z,31.90
2023-02-24T22:33:25.088Z,27.73
2023-02-24T22:35:52.237Z,28.60
2023-02-24T22:38:19.323Z,29.43
2023-02-24T22:40:46.544Z,28.70
2023-02-24T22:43:13.632Z,28.13
2023-02-24T22:45:40.710Z,25.47
2023-02-24T22:48:07.863Z,26.00
2023-02-24T22:50:34.973Z,28.63
2023-02-24T22:53:02.059Z,29.80
2023-02-24T22:55:29.329Z,30.10
2023-02-24T22:57:56.483Z,27.07
2023-02-24T23:00:23.822Z,26.97
2023-02-24T23:02:50.901Z,29.83
2023-02-24T23:05:18.078Z,28.00
2023-02-24T23:07:45.473Z,29.37
2023-02-24T23:10:12.680Z,27.80
2023-02-24T23:12:39.789Z,32.03
2023-02-24T23:15:08.400Z,29.17
2023-02-24T23:17:35.476Z,24.97
2023-02-24T23:20:02.628Z,26.00
2023-02-24T23:22:29.747Z,24.20
2023-02-24T23:24:56.854Z,26.83
2023-02-24T23:27:23.962Z,27.57
2023-02-24T23:29:51.085Z,23.30
2023-02-24T23:32:18.253Z,27.23
2023-02-24T23:34:45.847Z,25.03
2023-02-24T23:37:13.474Z,26.53
2023-02-24T23:39:40.611Z,24.80
2023-02-24T23:42:07.679Z,28.23
2023-02-24T23:44:37.396Z,26.60
2023-02-24T23:47:05.008Z,23.37
2023-02-24T23:49:47.330Z,27.57
2023-02-24T23:52:15.111Z,25.30
2023-02-24T23:54:42.216Z,21.77
2023-02-24T23:57:09.333Z,23.00
2023-02-24T23:59:37.563Z,24.83
